首页
METAR-TAF:

METAR-TAF

机场 :

Kerteh, 马来西亚

纬度: 04-32-15N, 经度: 103-25-36E, 海拔: 5米

当前天气观测

该预报发布于1小时和17分钟前的13:00 UTC
风速3节,风向西南,在南转南东西之间变化
温度 24°C
湿度 89%
气压 1011 hPa

METAR: WMKE 171300Z AUTO 23003KT 150V280 //// // ////// 24/22 Q1011

时间: 22:17 (14:17 UTC)

预报

该预报发布于3小时和17分钟前的11:00 UTC
预报有效从17日的 12点(UTC)到 18日的 12点(UTC)
风速3节,风向多变
能见度10公里或以上
少量云层高于2000英尺

TAF: WMKE 171100Z 1712/1812 VRB03KT 9999 FEW020

超过4000个机场的气象观测和天气预报(METAR&TAF报告)。

可查询的气象台以黄色和红色小点在地图上表示。

将鼠标移到小点上方,可查看气象台名称。

然后点击查看天气观测和预报。

如需切换地图:点击带黑十字的绿色按钮放大地图;点击带横线的绿色按钮缩小地图;或者点击绿色箭头查看邻近地区的地图。


METAR-TAF: